createdAt,value
2022-08-28T00:00:40.258Z,62.25
2022-08-28T00:03:10.622Z,61.21
2022-08-28T00:05:39.931Z,61.53
2022-08-28T00:08:10.004Z,61.74
2022-08-28T00:10:40.080Z,61.75
2022-08-28T00:13:18.607Z,62.17
2022-08-28T00:15:49.059Z,63.12
2022-08-28T00:18:17.875Z,63.52
2022-08-28T00:20:46.603Z,64.53
2022-08-28T00:23:15.019Z,63.99
2022-08-28T00:25:42.832Z,64.33
2022-08-28T00:28:21.029Z,64.98
2022-08-28T00:30:56.156Z,66.06
2022-08-28T00:33:27.431Z,66.47
2022-08-28T00:35:56.032Z,66.26
2022-08-28T00:38:27.166Z,66.18
2022-08-28T00:40:59.421Z,66.28
2022-08-28T00:43:44.933Z,66.33
2022-08-28T00:46:21.414Z,66.00
2022-08-28T00:48:49.949Z,66.52
2022-08-28T00:51:38.585Z,66.99
2022-08-28T00:54:08.254Z,67.29
2022-08-28T00:56:39.415Z,67.92
2022-08-28T00:59:16.067Z,67.51
2022-08-28T01:01:46.281Z,66.96
2022-08-28T01:04:17.981Z,66.72
2022-08-28T01:06:53.870Z,66.95
2022-08-28T01:09:25.961Z,67.29
2022-08-28T01:12:19.626Z,66.46
2022-08-28T01:14:52.006Z,65.72
2022-08-28T01:17:23.727Z,65.28
2022-08-28T01:19:57.447Z,65.41
2022-08-28T01:22:32.551Z,65.85
2022-08-28T01:25:05.918Z,65.32
2022-08-28T01:27:33.489Z,65.68
2022-08-28T01:30:01.753Z,65.54
2022-08-28T01:32:56.833Z,65.00
2022-08-28T01:35:30.178Z,65.14
2022-08-28T01:37:58.482Z,65.96
2022-08-28T01:40:38.097Z,66.46
2022-08-28T01:43:22.514Z,65.91
2022-08-28T01:45:56.322Z,66.24
2022-08-28T01:48:26.971Z,66.90
2022-08-28T01:50:56.026Z,66.85
2022-08-28T01:53:30.748Z,67.22
2022-08-28T01:56:05.293Z,67.51
2022-08-28T01:58:37.955Z,68.55
2022-08-28T02:01:17.075Z,68.75
2022-08-28T02:03:44.801Z,69.23
2022-08-28T02:06:16.564Z,68.95
2022-08-28T02:08:44.149Z,68.88
2022-08-28T02:11:12.378Z,68.94
2022-08-28T02:13:40.794Z,69.77
2022-08-28T02:16:11.033Z,69.53
2022-08-28T02:18:39.096Z,69.49
2022-08-28T02:21:09.259Z,69.36
2022-08-28T02:23:40.244Z,68.97
2022-08-28T02:26:09.822Z,69.14
2022-08-28T02:28:38.034Z,68.93
2022-08-28T02:31:09.447Z,68.31
2022-08-28T02:33:44.309Z,68.47
2022-08-28T02:36:15.096Z,68.88
2022-08-28T02:38:45.444Z,69.43
2022-08-28T02:41:13.947Z,69.12
2022-08-28T02:43:41.482Z,70.15
2022-08-28T02:46:10.143Z,70.24
2022-08-28T02:48:40.575Z,70.66
2022-08-28T02:51:13.387Z,72.20
2022-08-28T02:53:42.352Z,71.11
2022-08-28T02:56:10.503Z,72.49
2022-08-28T02:58:39.468Z,73.60
2022-08-28T03:01:11.377Z,74.56
2022-08-28T03:03:41.401Z,74.12
2022-08-28T03:06:12.605Z,74.76
2022-08-28T03:08:42.230Z,74.97
2022-08-28T03:11:10.484Z,75.20
2022-08-28T03:13:38.870Z,75.79
2022-08-28T03:16:07.074Z,71.65
2022-08-28T03:18:35.142Z,69.62
2022-08-28T03:21:03.179Z,65.61
2022-08-28T03:23:31.818Z,64.89
2022-08-28T03:26:07.113Z,63.05
2022-08-28T03:28:39.426Z,61.31
2022-08-28T03:31:10.101Z,61.72
2022-08-28T03:33:38.114Z,62.08
2022-08-28T03:36:12.953Z,61.61
2022-08-28T03:38:41.969Z,61.38
2022-08-28T03:41:14.616Z,61.33
2022-08-28T03:43:43.072Z,61.40
2022-08-28T03:46:17.656Z,61.41
2022-08-28T03:48:46.102Z,61.03
2022-08-28T03:51:18.755Z,60.98
2022-08-28T03:53:49.419Z,61.32
2022-08-28T03:56:23.959Z,61.28
2022-08-28T03:58:57.470Z,61.28
2022-08-28T04:01:25.574Z,60.25
2022-08-28T04:03:53.432Z,60.79
2022-08-28T04:06:21.143Z,60.65
2022-08-28T04:08:48.755Z,60.94
2022-08-28T04:11:17.385Z,61.32
2022-08-28T04:13:45.438Z,61.43
2022-08-28T04:16:16.749Z,61.71
2022-08-28T04:18:45.750Z,62.57
2022-08-28T04:21:20.112Z,62.22
2022-08-28T04:23:48.488Z,62.53
2022-08-28T04:26:19.940Z,62.96
2022-08-28T04:28:50.135Z,62.60
2022-08-28T04:31:32.380Z,63.22
2022-08-28T04:34:02.491Z,63.67
2022-08-28T04:36:30.918Z,63.67
2022-08-28T04:38:59.370Z,64.23
2022-08-28T04:41:28.502Z,64.40
2022-08-28T04:43:57.941Z,64.05
2022-08-28T04:46:26.036Z,64.83
2022-08-28T04:48:53.915Z,65.21
2022-08-28T04:51:22.481Z,65.90
2022-08-28T04:53:50.034Z,67.01
2022-08-28T04:56:18.261Z,67.28
2022-08-28T04:58:46.189Z,67.85
2022-08-28T05:01:26.960Z,67.75
2022-08-28T05:04:02.256Z,68.30
2022-08-28T05:06:32.181Z,69.26
2022-08-28T05:09:03.586Z,69.96
2022-08-28T05:11:34.484Z,69.93
2022-08-28T05:14:11.595Z,69.97
2022-08-28T05:16:50.228Z,70.63
2022-08-28T05:19:20.275Z,70.62
2022-08-28T05:21:48.725Z,71.50
2022-08-28T05:24:16.730Z,72.01
2022-08-28T05:26:48.334Z,72.68
2022-08-28T05:29:16.999Z,73.28
2022-08-28T05:31:45.274Z,73.82
2022-08-28T05:34:15.205Z,74.00
2022-08-28T05:36:42.800Z,74.86
2022-08-28T05:39:12.498Z,75.44
2022-08-28T05:41:43.291Z,75.37
2022-08-28T05:44:14.866Z,75.50
2022-08-28T05:46:47.463Z,75.44
2022-08-28T05:49:17.915Z,75.49
2022-08-28T05:51:46.824Z,75.41
2022-08-28T05:54:15.739Z,75.11
2022-08-28T05:56:45.213Z,74.86
2022-08-28T05:59:13.909Z,74.46
2022-08-28T06:01:46.425Z,73.80
2022-08-28T06:04:25.452Z,73.58
2022-08-28T06:06:54.106Z,73.83
2022-08-28T06:09:30.205Z,73.90
2022-08-28T06:12:02.855Z,74.14
2022-08-28T06:14:31.971Z,73.49
2022-08-28T06:17:00.985Z,73.29
2022-08-28T06:19:31.823Z,72.87
2022-08-28T06:22:07.501Z,73.56
2022-08-28T06:24:36.265Z,73.52
2022-08-28T06:27:04.569Z,73.55
2022-08-28T06:29:32.099Z,73.94
2022-08-28T06:32:03.424Z,73.78
2022-08-28T06:34:31.535Z,73.17
2022-08-28T06:36:59.025Z,73.53
2022-08-28T06:39:27.022Z,73.71
2022-08-28T06:41:54.838Z,73.31
2022-08-28T06:44:22.783Z,73.38
2022-08-28T06:46:53.619Z,73.79
2022-08-28T06:49:22.333Z,73.14
2022-08-28T06:51:50.534Z,73.31
2022-08-28T06:54:22.935Z,72.51
2022-08-28T06:56:52.346Z,72.72
2022-08-28T06:59:19.934Z,71.74
2022-08-28T07:01:47.576Z,71.42
2022-08-28T07:04:15.478Z,71.74
2022-08-28T07:06:54.295Z,71.86
2022-08-28T07:09:24.490Z,72.02
2022-08-28T07:11:52.537Z,71.72
2022-08-28T07:14:20.092Z,71.33
2022-08-28T07:16:47.991Z,70.69
2022-08-28T07:19:16.207Z,71.43
2022-08-28T07:21:46.484Z,70.95
2022-08-28T07:24:16.914Z,70.41
2022-08-28T07:26:47.018Z,70.67
2022-08-28T07:29:15.443Z,70.03
2022-08-28T07:31:53.153Z,70.37
2022-08-28T07:34:26.827Z,69.45
2022-08-28T07:36:56.293Z,69.21
2022-08-28T07:39:24.470Z,69.30
2022-08-28T07:41:51.946Z,68.16
2022-08-28T07:44:38.175Z,68.70
2022-08-28T07:47:08.817Z,68.78
2022-08-28T07:49:36.620Z,68.20
2022-08-28T07:52:09.224Z,68.29
2022-08-28T07:54:40.369Z,67.31
2022-08-28T07:57:10.331Z,66.92
2022-08-28T07:59:38.937Z,67.76
2022-08-28T08:02:07.028Z,66.53
2022-08-28T08:04:35.250Z,66.37
2022-08-28T08:07:04.738Z,65.92
2022-08-28T08:09:36.866Z,65.56
2022-08-28T08:12:05.654Z,65.40
2022-08-28T08:14:33.261Z,64.94
2022-08-28T08:17:04.013Z,65.19
2022-08-28T08:19:36.460Z,64.83
2022-08-28T08:22:04.250Z,63.74
2022-08-28T08:24:32.138Z,63.11
2022-08-28T08:27:02.340Z,62.96
2022-08-28T08:29:35.808Z,62.73
2022-08-28T08:32:08.939Z,62.40
2022-08-28T08:34:42.275Z,62.54
2022-08-28T08:37:11.784Z,60.70
2022-08-28T08:39:41.663Z,60.94
2022-08-28T08:42:31.979Z,61.27
2022-08-28T08:45:05.780Z,61.63
2022-08-28T08:47:52.430Z,62.70
2022-08-28T08:50:35.407Z,62.32
2022-08-28T08:53:21.803Z,62.69
2022-08-28T08:55:53.571Z,63.08
2022-08-28T08:58:53.154Z,62.69
2022-08-28T09:01:29.169Z,62.41
2022-08-28T09:04:08.537Z,63.10
2022-08-28T09:07:09.171Z,63.28
2022-08-28T09:09:52.855Z,63.43
2022-08-28T09:12:30.371Z,63.21
2022-08-28T09:15:05.529Z,63.44
2022-08-28T09:17:42.578Z,63.18
2022-08-28T09:20:14.993Z,62.15
2022-08-28T09:22:48.669Z,62.79
2022-08-28T09:26:12.556Z,61.00
2022-08-28T09:28:41.880Z,62.05
2022-08-28T09:31:30.060Z,62.43
2022-08-28T09:34:38.119Z,62.09
2022-08-28T09:37:08.479Z,62.66
2022-08-28T09:39:36.417Z,62.54
2022-08-28T09:42:41.593Z,61.79
2022-08-28T09:45:20.596Z,62.98
2022-08-28T09:47:58.374Z,62.36
2022-08-28T09:50:31.336Z,62.23
2022-08-28T09:53:09.473Z,62.52
2022-08-28T09:56:11.101Z,62.39
2022-08-28T09:58:59.811Z,61.99
2022-08-28T10:01:34.931Z,60.75
2022-08-28T10:04:44.472Z,58.75
2022-08-28T10:07:37.593Z,58.49
2022-08-28T10:10:21.430Z,58.28
2022-08-28T10:13:06.993Z,58.24
2022-08-28T10:15:56.164Z,57.00
2022-08-28T10:18:51.781Z,56.54
2022-08-28T10:21:40.457Z,55.19
2022-08-28T10:24:26.999Z,55.20
2022-08-28T10:27:15.658Z,54.01
2022-08-28T10:30:12.445Z,56.84
2022-08-28T10:33:00.016Z,56.33
2022-08-28T10:36:03.702Z,55.40
2022-08-28T10:38:49.501Z,55.82
2022-08-28T10:41:41.238Z,54.58
2022-08-28T10:44:14.000Z,55.07
2022-08-28T10:46:55.656Z,54.68
2022-08-28T10:49:29.038Z,54.21
2022-08-28T10:52:15.653Z,54.70
2022-08-28T10:55:12.652Z,55.22
2022-08-28T10:58:02.607Z,54.60
2022-08-28T11:00:30.610Z,53.01
2022-08-28T11:03:22.235Z,52.29
2022-08-28T11:06:08.388Z,51.70
2022-08-28T11:08:38.445Z,52.36
2022-08-28T11:11:13.884Z,50.56
2022-08-28T11:13:55.022Z,49.65
2022-08-28T11:16:30.170Z,49.34
2022-08-28T11:19:11.228Z,47.01
2022-08-28T11:21:52.530Z,46.65
2022-08-28T11:24:32.602Z,46.02
2022-08-28T11:27:16.976Z,44.96
2022-08-28T11:30:06.558Z,44.37
2022-08-28T11:32:56.143Z,45.36
2022-08-28T11:35:41.332Z,45.30
2022-08-28T11:38:10.283Z,44.46
2022-08-28T11:40:56.810Z,43.23
2022-08-28T11:43:24.302Z,42.18
2022-08-28T11:45:55.045Z,42.60
2022-08-28T11:48:35.477Z,43.36
2022-08-28T11:51:13.741Z,42.16
2022-08-28T11:54:11.672Z,40.94
2022-08-28T11:56:48.034Z,41.29
2022-08-28T11:59:59.823Z,41.06
2022-08-28T12:02:39.399Z,40.35
2022-08-28T12:05:33.161Z,41.48
2022-08-28T12:08:03.919Z,41.05
2022-08-28T12:10:32.538Z,40.02
2022-08-28T12:13:09.705Z,38.29
2022-08-28T12:15:42.727Z,38.19
2022-08-28T12:18:13.262Z,37.58
2022-08-28T12:21:04.353Z,36.02
2022-08-28T12:24:09.007Z,35.28
2022-08-28T12:26:44.682Z,37.10
2022-08-28T12:29:45.008Z,38.09
2022-08-28T12:32:41.205Z,36.86
2022-08-28T12:35:26.105Z,34.89
2022-08-28T12:37:53.807Z,34.54
2022-08-28T12:40:37.852Z,34.89
2022-08-28T12:43:10.923Z,33.73
2022-08-28T12:45:58.589Z,33.20
2022-08-28T12:48:34.456Z,33.37
2022-08-28T12:51:14.713Z,34.12
2022-08-28T12:53:54.026Z,33.33
2022-08-28T12:56:24.616Z,33.19
2022-08-28T12:58:52.959Z,31.29
2022-08-28T13:01:33.117Z,32.02
2022-08-28T13:04:24.283Z,32.60
2022-08-28T13:07:06.782Z,31.40
2022-08-28T13:09:35.613Z,31.03
2022-08-28T13:12:03.952Z,31.28
2022-08-28T13:14:52.392Z,31.95
2022-08-28T13:17:47.446Z,30.52
2022-08-28T13:20:31.168Z,30.02
2022-08-28T13:23:00.033Z,30.67
2022-08-28T13:25:34.641Z,30.95
2022-08-28T13:28:11.137Z,30.61
2022-08-28T13:30:38.844Z,29.26
2022-08-28T13:33:26.001Z,28.61
2022-08-28T13:35:54.990Z,29.72
2022-08-28T13:38:25.212Z,28.75
2022-08-28T13:41:02.415Z,29.56
2022-08-28T13:43:45.855Z,33.01
2022-08-28T13:46:13.659Z,29.01
2022-08-28T13:48:41.499Z,28.49
2022-08-28T13:51:16.383Z,28.47
2022-08-28T13:53:50.516Z,29.32
2022-08-28T13:56:20.132Z,29.22
2022-08-28T13:58:58.125Z,29.57
2022-08-28T14:01:46.409Z,29.11
2022-08-28T14:04:14.928Z,28.64
2022-08-28T14:06:44.168Z,28.35
2022-08-28T14:09:15.307Z,28.73
2022-08-28T14:11:49.744Z,28.25
2022-08-28T14:14:17.600Z,28.02
2022-08-28T14:16:45.821Z,27.03
2022-08-28T14:19:13.568Z,27.28
2022-08-28T14:21:41.860Z,26.76
2022-08-28T14:24:09.490Z,27.60
2022-08-28T14:26:37.680Z,27.02
2022-08-28T14:29:08.516Z,27.46
2022-08-28T14:31:37.505Z,26.45
2022-08-28T14:34:05.692Z,25.77
2022-08-28T14:36:33.914Z,25.31
2022-08-28T14:39:06.280Z,25.55
2022-08-28T14:41:35.613Z,26.08
2022-08-28T14:44:04.425Z,25.61
2022-08-28T14:46:35.955Z,26.15
2022-08-28T14:49:09.045Z,25.26
2022-08-28T14:51:41.162Z,24.78
2022-08-28T14:54:11.848Z,25.71
2022-08-28T14:56:40.995Z,25.08
2022-08-28T14:59:13.418Z,25.21
2022-08-28T15:01:45.001Z,27.08
2022-08-28T15:04:17.859Z,25.57
2022-08-28T15:06:46.192Z,25.09
2022-08-28T15:09:14.587Z,25.22
2022-08-28T15:11:43.947Z,25.84
2022-08-28T15:14:12.375Z,25.69
2022-08-28T15:16:45.532Z,24.93
2022-08-28T15:19:17.819Z,25.45
2022-08-28T15:21:50.094Z,26.19
2022-08-28T15:24:25.857Z,25.59
2022-08-28T15:26:54.037Z,25.56
2022-08-28T15:29:21.621Z,24.27
2022-08-28T15:31:53.515Z,25.37
2022-08-28T15:34:26.914Z,25.65
2022-08-28T15:36:56.495Z,25.42
2022-08-28T15:39:45.330Z,27.00
2022-08-28T15:42:14.136Z,26.48
2022-08-28T15:44:42.178Z,31.84
2022-08-28T15:47:10.468Z,25.96
2022-08-28T15:49:44.596Z,28.88
2022-08-28T15:52:19.185Z,32.90
2022-08-28T15:54:48.303Z,34.08
2022-08-28T15:57:16.174Z,33.76
2022-08-28T15:59:49.709Z,30.50
2022-08-28T16:02:22.092Z,35.03
2022-08-28T16:04:50.258Z,36.31
2022-08-28T16:07:20.819Z,32.89
2022-08-28T16:09:49.204Z,31.27
2022-08-28T16:12:17.366Z,33.94
2022-08-28T16:14:44.969Z,33.91
2022-08-28T16:17:12.598Z,33.66
2022-08-28T16:19:41.173Z,34.52
2022-08-28T16:22:10.264Z,29.30
2022-08-28T16:24:38.543Z,32.93
2022-08-28T16:27:07.874Z,35.63
2022-08-28T16:29:38.691Z,35.39
2022-08-28T16:32:07.482Z,32.04
2022-08-28T16:34:36.868Z,36.16
2022-08-28T16:37:04.673Z,36.48
2022-08-28T16:39:32.694Z,34.91
2022-08-28T16:42:00.243Z,31.07
2022-08-28T16:44:27.957Z,32.43
2022-08-28T16:46:56.450Z,32.22
2022-08-28T16:49:24.782Z,34.00
2022-08-28T16:51:52.883Z,34.05
2022-08-28T16:54:21.809Z,34.82
2022-08-28T16:56:49.452Z,37.88
2022-08-28T16:59:18.267Z,37.93
2022-08-28T17:01:53.101Z,37.93
2022-08-28T17:04:22.137Z,38.83
2022-08-28T17:06:50.246Z,38.47
2022-08-28T17:09:21.042Z,39.07
2022-08-28T17:11:52.093Z,39.12
2022-08-28T17:14:21.792Z,40.19
2022-08-28T17:16:50.534Z,40.04
2022-08-28T17:19:19.450Z,40.83
2022-08-28T17:22:06.164Z,40.71
2022-08-28T17:24:33.824Z,41.47
2022-08-28T17:27:05.365Z,41.68
2022-08-28T17:29:36.352Z,41.43
2022-08-28T17:32:05.817Z,42.25
2022-08-28T17:34:33.630Z,42.33
2022-08-28T17:37:01.786Z,43.24
2022-08-28T17:39:29.817Z,43.19
2022-08-28T17:41:57.678Z,43.23
2022-08-28T17:44:25.633Z,43.28
2022-08-28T17:46:53.501Z,43.45
2022-08-28T17:49:22.394Z,43.57
2022-08-28T17:51:51.119Z,43.56
2022-08-28T17:54:22.634Z,43.74
2022-08-28T17:56:52.709Z,44.17
2022-08-28T17:59:21.549Z,44.05
2022-08-28T18:01:49.958Z,43.75
2022-08-28T18:04:24.189Z,44.10
2022-08-28T18:06:54.710Z,44.87
2022-08-28T18:09:24.170Z,44.88
2022-08-28T18:11:53.298Z,45.66
2022-08-28T18:14:21.761Z,45.56
2022-08-28T18:16:49.411Z,46.23
2022-08-28T18:19:17.038Z,45.83
2022-08-28T18:21:45.100Z,46.59
2022-08-28T18:24:13.158Z,46.21
2022-08-28T18:26:43.438Z,46.91
2022-08-28T18:29:12.542Z,46.35
2022-08-28T18:31:41.582Z,46.68
2022-08-28T18:34:10.074Z,46.85
2022-08-28T18:36:43.561Z,46.82
2022-08-28T18:39:11.909Z,46.71
2022-08-28T18:41:43.735Z,46.27
2022-08-28T18:44:15.216Z,47.17
2022-08-28T18:46:44.143Z,47.29
2022-08-28T18:49:12.511Z,47.77
2022-08-28T18:51:43.475Z,48.18
2022-08-28T18:54:18.003Z,47.75
2022-08-28T18:56:50.310Z,48.12
2022-08-28T18:59:19.089Z,48.49
2022-08-28T19:01:47.020Z,48.03
2022-08-28T19:04:14.734Z,48.54
2022-08-28T19:06:42.508Z,48.55
2022-08-28T19:09:20.606Z,48.49
2022-08-28T19:11:48.678Z,48.19
2022-08-28T19:14:16.603Z,48.16
2022-08-28T19:16:45.093Z,48.13
2022-08-28T19:19:12.696Z,48.87
2022-08-28T19:21:40.496Z,48.20
2022-08-28T19:24:08.128Z,48.94
2022-08-28T19:26:37.031Z,49.10
2022-08-28T19:29:04.863Z,49.30
2022-08-28T19:31:33.917Z,49.34
2022-08-28T19:34:02.520Z,49.54
2022-08-28T19:36:30.653Z,49.44
2022-08-28T19:38:58.606Z,49.02
2022-08-28T19:41:27.505Z,49.83
2022-08-28T19:43:55.496Z,48.39
2022-08-28T19:46:23.016Z,48.61
2022-08-28T19:48:53.062Z,48.52
2022-08-28T19:51:24.138Z,48.51
2022-08-28T19:53:58.730Z,49.32
2022-08-28T19:56:30.264Z,49.77
2022-08-28T19:59:00.490Z,49.47
2022-08-28T20:01:31.771Z,49.71
2022-08-28T20:04:00.453Z,49.58
2022-08-28T20:06:31.130Z,49.83
2022-08-28T20:08:59.280Z,49.91
2022-08-28T20:11:30.165Z,49.41
2022-08-28T20:14:04.282Z,50.01
2022-08-28T20:16:39.478Z,49.77
2022-08-28T20:19:10.378Z,49.91
2022-08-28T20:21:41.799Z,49.92
2022-08-28T20:24:18.151Z,50.74
2022-08-28T20:26:46.775Z,50.66
2022-08-28T20:29:21.616Z,50.50
2022-08-28T20:31:49.472Z,50.61
2022-08-28T20:34:19.151Z,50.52
2022-08-28T20:36:47.746Z,50.47
2022-08-28T20:39:15.667Z,50.38
2022-08-28T20:41:44.813Z,50.17
2022-08-28T20:44:16.931Z,50.57
2022-08-28T20:46:47.104Z,50.35
2022-08-28T20:49:22.097Z,50.54
2022-08-28T20:51:53.664Z,50.83
2022-08-28T20:54:23.762Z,51.72
2022-08-28T20:56:52.242Z,52.20
2022-08-28T20:59:22.245Z,52.62
2022-08-28T21:01:51.831Z,53.56
2022-08-28T21:04:21.020Z,54.33
2022-08-28T21:06:48.772Z,55.03
2022-08-28T21:09:17.600Z,55.40
2022-08-28T21:11:45.682Z,55.35
2022-08-28T21:14:15.006Z,55.60
2022-08-28T21:16:44.065Z,55.74
2022-08-28T21:19:16.323Z,56.16
2022-08-28T21:21:46.420Z,56.41
2022-08-28T21:24:16.768Z,56.02
2022-08-28T21:26:50.607Z,56.11
2022-08-28T21:29:22.048Z,56.17
2022-08-28T21:31:52.215Z,55.90
2022-08-28T21:34:21.642Z,55.24
2022-08-28T21:36:50.715Z,53.79
2022-08-28T21:39:20.701Z,54.18
2022-08-28T21:41:49.474Z,53.62
2022-08-28T21:44:17.707Z,53.44
2022-08-28T21:46:45.880Z,52.88
2022-08-28T21:49:13.873Z,52.98
2022-08-28T21:51:41.642Z,53.67
2022-08-28T21:54:09.237Z,53.92
2022-08-28T21:56:37.136Z,54.18
2022-08-28T21:59:04.629Z,54.90
2022-08-28T22:01:32.187Z,54.83
2022-08-28T22:04:00.125Z,55.11
2022-08-28T22:06:27.738Z,55.33
2022-08-28T22:08:56.558Z,55.02
2022-08-28T22:11:25.429Z,55.30
2022-08-28T22:13:57.281Z,56.26
2022-08-28T22:16:26.816Z,56.28
2022-08-28T22:18:55.068Z,56.42
2022-08-28T22:21:45.185Z,56.22
2022-08-28T22:24:14.097Z,56.16
2022-08-28T22:26:43.782Z,56.78
2022-08-28T22:29:12.084Z,56.44
2022-08-28T22:31:45.508Z,56.64
2022-08-28T22:34:14.978Z,56.70
2022-08-28T22:36:42.588Z,55.42
2022-08-28T22:39:10.223Z,56.28
2022-08-28T22:41:38.697Z,56.65
2022-08-28T22:44:07.260Z,57.03
2022-08-28T22:46:36.111Z,60.05
2022-08-28T22:49:04.304Z,61.68
2022-08-28T22:51:34.876Z,64.64
2022-08-28T22:54:02.974Z,68.85
2022-08-28T22:56:30.534Z,72.09
2022-08-28T22:58:58.286Z,75.89
2022-08-28T23:01:26.559Z,78.65
2022-08-28T23:03:54.231Z,82.99
2022-08-28T23:06:21.968Z,85.44
2022-08-28T23:08:49.939Z,86.72
2022-08-28T23:11:17.553Z,89.94
2022-08-28T23:13:45.494Z,91.02
2022-08-28T23:16:13.396Z,91.56
2022-08-28T23:19:06.552Z,92.70
2022-08-28T23:21:28.703Z,93.44
2022-08-28T23:23:56.621Z,93.48
2022-08-28T23:26:25.507Z,94.22
2022-08-28T23:28:53.306Z,94.30
2022-08-28T23:31:21.005Z,92.98
2022-08-28T23:33:49.283Z,92.89
2022-08-28T23:36:18.855Z,93.22
2022-08-28T23:38:46.319Z,92.31
2022-08-28T23:41:14.387Z,90.33
2022-08-28T23:43:42.521Z,90.41
2022-08-28T23:46:13.470Z,91.52
2022-08-28T23:48:41.423Z,90.93
2022-08-28T23:51:11.400Z,91.84
2022-08-28T23:53:42.539Z,93.58
2022-08-28T23:56:10.634Z,94.37
2022-08-28T23:58:43.211Z,93.33
